Eppley Airfield
KOMA : now visible

Airfield :











YOU CAN JOIN US ON...

 
LOGIN :

Register | Disclaimer

   EN    FR    IT 

 









Legend :    VFR   Marginal VFR   IFR   Intensive IFR   Very Intensive IFR
Visi :
Ceiling :
>= 8 km
>= 3000ft
5 to 8 km
1000 to 3000 ft
1500m to 5 km
500 to 1000 ft
800 to 1500m
200 to 500 ft
< 800m
< 200 ft
Symbols :   Thunderstorms  Fog  Heavy snow  Heavy precipitations  Wind > 20 kt






- Airport Elevation : 984 ft
- IATA code : OMA


KOMA - Eppley

CURRENT METAR :
  • 280552Z 33020G28KT 10SM FEW025 BKN150 M09/M14 A3001 RMK AO2 PK WND 33033/0532 SLP173 60000 T10941144 11067 21094 400941094 53035 $

EXPIRED METARs :
  • 280538Z 33017G33KT 10SM SCT024 BKN150 M09/M15 A2999 RMK AO2 PK WND 33033/0532 T10891150 $
  • 280514Z 33019G30KT 10SM BKN024 BKN150 M09/M14 A2998 RMK AO2 PK WND 32031/0501 T10941144 $
  • 280452Z 34017G32KT 10SM FEW023 BKN150 M09/M14 A2996 RMK AO2 PK WND 34036/0403 SLP158 T10941144 $
  • 280417Z 33023G31KT 10SM SCT023 OVC140 M09/M14 A2994 RMK AO2 PK WND 34036/0403 T10891139 $
  • 280352Z 33023G31KT 10SM BKN025 OVC100 M09/M14 A2994 RMK AO2 PK WND 33036/0305 SLP149 T10891139 $
  • 280252Z 33025G37KT 10SM BKN025 BKN070 OVC180 M09/M14 A2990 RMK AO2 PK WND 33040/0217 SLP134 60000 T10891139 51042 $
  • 280212Z 34020G31KT 10SM SCT021 BKN065 OVC100 M08/M13 A2989 RMK AO2 PK WND 33031/0202 T10831133 $
  • 280152Z 34021G34KT 10SM BKN021 BKN060 OVC110 M09/M13 A2988 RMK AO2 PK WND 32040/0140 SNE28 SLP127 P0000 T10891128 $
  • 280128Z 33023G32KT 8SM OVC017 M09/M12 A2985 RMK AO2 PK WND 33033/0107 SNE28 PRESRR P0000 T10891122 $
  • 280123Z 33023G32KT 6SM -SN OVC017 M09/M12 A2983 RMK AO2 PK WND 33033/0107 P0000 T10891122 $

TAF KOMA
Valid from the 28 at 06:00 until the 29 at 06:00 UTC


280525Z 2806/2906 33017G27KT P6SM SCT150
FM281500 30010KT P6SM SKC
FM282300 19008KT P6SM SKC
KZMP FIR / North America



MET'MAP, your aeronautical weather chart ! - Copyright ORBIFLY December 2007 - Disclaimer

ORBIFLY MET'MAP TEAM :

Programming & Development : Alexandra Zaïnal
Original concept : Baudouin d'Aumeries
Technical & hardware support : Manuel Goepfert
Assistance : Marc-Olivier Méhu




SOURCES & CREDITS :

   NOAA       Earth
Advisory